createdAt,value
2023-01-03T00:02:19.816Z,22.26
2023-01-03T00:05:05.793Z,22.25
2023-01-03T00:07:51.321Z,22.24
2023-01-03T00:10:37.009Z,22.21
2023-01-03T00:13:22.617Z,22.21
2023-01-03T00:16:18.622Z,22.18
2023-01-03T00:19:09.640Z,22.16
2023-01-03T00:21:54.909Z,22.15
2023-01-03T00:24:40.556Z,22.15
2023-01-03T00:27:26.919Z,22.14
2023-01-03T00:30:12.606Z,22.11
2023-01-03T00:32:58.015Z,22.11
2023-01-03T00:35:43.457Z,22.10
2023-01-03T00:38:29.320Z,22.09
2023-01-03T00:41:17.277Z,22.09
2023-01-03T00:44:03.631Z,22.08
2023-01-03T00:46:49.545Z,22.07
2023-01-03T00:49:35.239Z,22.06
2023-01-03T00:52:20.570Z,22.04
2023-01-03T00:55:06.381Z,22.04
2023-01-03T00:57:52.020Z,22.03
2023-01-03T01:00:37.234Z,22.01
2023-01-03T01:03:22.822Z,22.01
2023-01-03T01:06:30.826Z,21.98
2023-01-03T01:09:20.499Z,21.98
2023-01-03T01:12:07.368Z,21.98
2023-01-03T01:14:52.843Z,21.98
2023-01-03T01:17:38.973Z,21.97
2023-01-03T01:20:24.528Z,21.96
2023-01-03T01:23:09.951Z,21.95
2023-01-03T01:25:55.373Z,21.95
2023-01-03T01:28:42.416Z,21.94
2023-01-03T01:31:28.125Z,21.94
2023-01-03T01:34:14.581Z,21.93
2023-01-03T01:36:59.804Z,21.92
2023-01-03T01:39:45.204Z,21.92
2023-01-03T01:42:49.011Z,21.91
2023-01-03T01:45:35.370Z,21.90
2023-01-03T01:48:20.794Z,21.89
2023-01-03T01:51:09.408Z,21.90
2023-01-03T01:53:56.756Z,21.89
2023-01-03T01:56:51.656Z,21.90
2023-01-03T01:59:37.164Z,21.88
2023-01-03T02:02:24.182Z,21.88
2023-01-03T02:05:10.996Z,21.88
2023-01-03T02:07:57.313Z,21.87
2023-01-03T02:11:10.196Z,21.83
2023-01-03T02:14:18.819Z,21.84
2023-01-03T02:17:20.287Z,21.84
2023-01-03T02:20:18.420Z,21.83
2023-01-03T02:23:42.179Z,21.82
2023-01-03T02:26:40.313Z,21.82
2023-01-03T02:29:31.994Z,21.80
2023-01-03T02:32:35.191Z,21.80
2023-01-03T02:35:46.029Z,21.78
2023-01-03T02:39:02.302Z,21.77
2023-01-03T02:42:23.110Z,21.77
2023-01-03T02:45:17.505Z,21.77
2023-01-03T02:48:17.525Z,21.76
2023-01-03T02:51:09.024Z,21.76
2023-01-03T02:53:55.828Z,21.75
2023-01-03T02:56:47.449Z,21.75
2023-01-03T02:59:43.077Z,21.73
2023-01-03T03:02:34.773Z,21.73
2023-01-03T03:05:25.825Z,21.74
2023-01-03T03:08:11.435Z,21.73
2023-01-03T03:11:15.687Z,21.74
2023-01-03T03:14:17.915Z,21.72
2023-01-03T03:17:08.780Z,21.73
2023-01-03T03:20:15.200Z,21.71
2023-01-03T03:23:27.955Z,21.71
2023-01-03T03:26:18.411Z,21.71
2023-01-03T03:29:14.115Z,21.69
2023-01-03T03:31:59.418Z,21.70
2023-01-03T03:34:46.810Z,21.70
2023-01-03T03:37:36.353Z,21.70
2023-01-03T03:40:44.441Z,21.72
2023-01-03T03:43:55.793Z,21.69
2023-01-03T03:46:54.231Z,21.69
2023-01-03T03:49:44.662Z,21.67
2023-01-03T03:52:33.741Z,21.67
2023-01-03T03:55:25.719Z,21.67
2023-01-03T03:58:18.890Z,21.66
2023-01-03T04:01:05.846Z,21.65
2023-01-03T04:03:55.872Z,21.65
2023-01-03T04:06:49.253Z,21.64
2023-01-03T04:09:34.572Z,21.65
2023-01-03T04:12:19.865Z,21.65
2023-01-03T04:15:07.074Z,21.64
2023-01-03T04:17:53.588Z,21.64
2023-01-03T04:20:38.865Z,21.65
2023-01-03T04:23:24.639Z,21.69
2023-01-03T04:26:09.980Z,21.73
2023-01-03T04:28:55.228Z,21.78
2023-01-03T04:31:40.514Z,21.80
2023-01-03T04:34:25.887Z,21.82
2023-01-03T04:37:11.215Z,21.84
2023-01-03T04:39:56.527Z,21.85
2023-01-03T04:43:00.348Z,21.90
2023-01-03T04:45:47.727Z,21.92
2023-01-03T04:48:32.971Z,21.97
2023-01-03T04:51:18.300Z,22.00
2023-01-03T04:54:05.265Z,22.02
2023-01-03T04:56:50.888Z,22.05
2023-01-03T04:59:36.810Z,22.11
2023-01-03T05:02:22.240Z,22.12
2023-01-03T05:05:08.370Z,22.14
2023-01-03T05:07:53.692Z,22.17
2023-01-03T05:10:40.292Z,22.16
2023-01-03T05:13:25.884Z,22.18
2023-01-03T05:16:14.307Z,22.23
2023-01-03T05:19:00.065Z,22.24
2023-01-03T05:22:03.973Z,22.27
2023-01-03T05:25:07.870Z,22.30
2023-01-03T05:27:53.592Z,22.34
2023-01-03T05:30:39.240Z,22.36
2023-01-03T05:33:25.006Z,22.38
2023-01-03T05:36:11.293Z,22.39
2023-01-03T05:38:56.967Z,22.40
2023-01-03T05:42:00.731Z,22.44
2023-01-03T05:44:46.375Z,22.47
2023-01-03T05:47:31.683Z,22.47
2023-01-03T05:50:17.135Z,22.48
2023-01-03T05:53:03.863Z,22.52
2023-01-03T05:55:49.282Z,22.53
2023-01-03T05:58:34.598Z,22.52
2023-01-03T06:01:20.294Z,22.51
2023-01-03T06:04:05.645Z,22.54
2023-01-03T06:06:50.931Z,22.55
2023-01-03T06:09:36.244Z,22.58
2023-01-03T06:12:21.548Z,22.61
2023-01-03T06:15:07.272Z,22.62
2023-01-03T06:17:57.542Z,22.64
2023-01-03T06:20:43.208Z,22.65
2023-01-03T06:23:28.527Z,22.65
2023-01-03T06:26:18.920Z,22.66
2023-01-03T06:29:05.891Z,22.65
2023-01-03T06:31:51.224Z,22.67
2023-01-03T06:34:36.535Z,22.65
2023-01-03T06:37:21.971Z,22.65
2023-01-03T06:40:08.142Z,22.64
2023-01-03T06:42:53.663Z,22.64
2023-01-03T06:45:57.536Z,22.61
2023-01-03T06:49:02.016Z,22.59
2023-01-03T06:52:08.085Z,22.55
2023-01-03T06:54:53.710Z,22.52
2023-01-03T06:57:42.093Z,22.50
2023-01-03T07:00:28.086Z,22.46
2023-01-03T07:03:13.404Z,22.43
2023-01-03T07:05:58.945Z,22.43
2023-01-03T07:08:48.493Z,22.44
2023-01-03T07:11:34.019Z,22.45
2023-01-03T07:14:20.114Z,22.47
2023-01-03T07:17:05.438Z,22.45
2023-01-03T07:19:50.802Z,22.45
2023-01-03T07:22:35.913Z,22.50
2023-01-03T07:25:21.442Z,22.53
2023-01-03T07:28:11.964Z,22.56
2023-01-03T07:31:15.802Z,22.61
2023-01-03T07:34:00.961Z,22.62
2023-01-03T07:36:46.460Z,22.63
2023-01-03T07:39:31.664Z,22.66
2023-01-03T07:42:35.977Z,22.66
2023-01-03T07:45:21.575Z,22.64
2023-01-03T07:48:07.435Z,22.67
2023-01-03T07:50:56.867Z,22.70
2023-01-03T07:53:42.435Z,22.72
2023-01-03T07:56:27.728Z,22.74
2023-01-03T07:59:13.168Z,22.74
2023-01-03T08:01:58.795Z,22.73
2023-01-03T08:04:44.313Z,22.73
2023-01-03T08:07:29.570Z,22.72
2023-01-03T08:10:36.283Z,22.70
2023-01-03T08:13:21.889Z,22.66
2023-01-03T08:16:11.245Z,22.66
2023-01-03T08:18:56.534Z,22.62
2023-01-03T08:21:41.618Z,22.60
2023-01-03T08:24:26.888Z,22.61
2023-01-03T08:27:12.170Z,22.62
2023-01-03T08:29:57.338Z,22.62
2023-01-03T08:32:42.887Z,22.64
2023-01-03T08:35:32.713Z,22.64
2023-01-03T08:38:23.007Z,22.66
2023-01-03T08:41:11.582Z,22.66
2023-01-03T08:44:00.633Z,22.68
2023-01-03T08:46:49.940Z,22.68
2023-01-03T08:49:36.300Z,22.71
2023-01-03T08:52:21.488Z,22.74
2023-01-03T08:55:08.279Z,22.74
2023-01-03T08:57:53.781Z,22.72
2023-01-03T09:00:39.756Z,22.72
2023-01-03T09:03:25.279Z,22.71
2023-01-03T09:06:10.571Z,22.70
2023-01-03T09:08:55.929Z,22.67
2023-01-03T09:11:41.176Z,22.67
2023-01-03T09:14:26.670Z,22.66
2023-01-03T09:17:12.074Z,22.62
2023-01-03T09:19:57.521Z,22.61
2023-01-03T09:22:43.239Z,22.60
2023-01-03T09:25:34.878Z,22.59
2023-01-03T09:28:22.275Z,22.59
2023-01-03T09:31:07.721Z,22.59
2023-01-03T09:33:56.607Z,22.58
2023-01-03T09:36:42.275Z,22.58
2023-01-03T09:39:27.761Z,22.60
2023-01-03T09:42:42.362Z,22.66
2023-01-03T09:45:34.242Z,22.72
2023-01-03T09:48:28.910Z,22.73
2023-01-03T09:51:48.777Z,22.78
2023-01-03T09:54:57.353Z,22.81
2023-01-03T09:58:01.235Z,22.83
2023-01-03T10:01:12.106Z,22.86
2023-01-03T10:04:22.738Z,22.89
2023-01-03T10:07:31.972Z,22.92
2023-01-03T10:10:20.726Z,22.93
2023-01-03T10:13:24.963Z,22.92
2023-01-03T10:16:42.319Z,22.94
2023-01-03T10:19:59.988Z,22.91
2023-01-03T10:22:48.501Z,22.78
2023-01-03T10:25:41.691Z,22.78
2023-01-03T10:28:41.397Z,22.73
2023-01-03T10:31:33.168Z,22.71
2023-01-03T10:34:18.998Z,22.72
2023-01-03T10:37:17.941Z,22.74
2023-01-03T10:40:04.901Z,22.78
2023-01-03T10:42:50.541Z,22.79
2023-01-03T10:45:50.652Z,22.82
2023-01-03T10:51:49.718Z,22.83
2023-01-03T10:54:41.803Z,22.86
2023-01-03T10:57:42.751Z,22.86
2023-01-03T11:00:31.293Z,22.88
2023-01-03T11:03:26.664Z,22.88
2023-01-03T11:06:16.012Z,22.91
2023-01-03T11:09:06.215Z,22.92
2023-01-03T11:12:02.788Z,22.92
2023-01-03T11:14:55.991Z,22.93
2023-01-03T11:17:59.488Z,22.95
2023-01-03T11:21:11.860Z,22.94
2023-01-03T11:24:06.134Z,22.95
2023-01-03T11:27:11.548Z,22.97
2023-01-03T11:30:18.797Z,22.96
2023-01-03T11:33:29.112Z,22.98
2023-01-03T11:36:26.634Z,23.01
2023-01-03T11:42:48.460Z,23.03
2023-01-03T11:45:36.138Z,23.05
2023-01-03T11:51:08.905Z,23.09
2023-01-03T11:54:09.139Z,23.11
2023-01-03T11:56:55.096Z,23.13
2023-01-03T11:59:53.169Z,23.13
2023-01-03T12:02:44.872Z,23.15
2023-01-03T12:05:48.918Z,23.17
2023-01-03T12:08:44.227Z,23.18
2023-01-03T12:11:34.208Z,23.18
2023-01-03T12:14:29.724Z,23.15
2023-01-03T12:17:25.350Z,23.12
2023-01-03T12:20:25.155Z,23.13
2023-01-03T12:23:44.299Z,23.08
2023-01-03T12:26:30.501Z,23.08
2023-01-03T12:29:15.941Z,23.08
2023-01-03T12:32:11.898Z,23.08
2023-01-03T12:35:33.577Z,23.09
2023-01-03T12:38:27.369Z,23.06
2023-01-03T12:41:34.432Z,23.05
2023-01-03T12:44:27.871Z,23.04
2023-01-03T12:47:33.270Z,23.03
2023-01-03T12:50:28.224Z,23.04
2023-01-03T12:53:38.716Z,23.03
2023-01-03T12:56:33.030Z,23.03
2023-01-03T12:59:39.109Z,23.02
2023-01-03T13:02:45.777Z,23.03
2023-01-03T13:05:39.889Z,23.02
2023-01-03T13:17:26.788Z,23.06
2023-01-03T13:20:25.171Z,23.09
2023-01-03T13:23:28.228Z,23.11
2023-01-03T13:26:24.844Z,23.06
2023-01-03T13:29:34.635Z,23.05
2023-01-03T13:32:19.200Z,23.04
2023-01-03T13:35:04.026Z,23.05
2023-01-03T13:43:19.993Z,23.00
2023-01-03T13:46:28.421Z,22.98
2023-01-03T13:49:25.808Z,22.93
2023-01-03T13:52:56.379Z,22.90
2023-01-03T13:55:54.813Z,22.88
2023-01-03T13:58:46.744Z,22.83
2023-01-03T14:01:55.714Z,22.81
2023-01-03T14:05:02.933Z,22.76
2023-01-03T14:08:10.004Z,22.72
2023-01-03T14:11:23.068Z,22.68
2023-01-03T14:14:16.795Z,22.66
2023-01-03T14:17:03.356Z,22.65
2023-01-03T14:19:53.330Z,22.66
2023-01-03T14:22:44.176Z,22.63
2023-01-03T14:25:45.259Z,22.65
2023-01-03T14:28:33.340Z,22.63
2023-01-03T14:31:22.126Z,22.63
2023-01-03T14:34:22.177Z,22.62
2023-01-03T14:37:14.280Z,22.59
2023-01-03T14:40:06.281Z,22.57
2023-01-03T14:42:51.731Z,22.56
2023-01-03T14:45:37.124Z,22.55
2023-01-03T14:48:24.529Z,22.54
2023-01-03T14:51:10.249Z,22.51
2023-01-03T14:53:56.530Z,22.50
2023-01-03T14:56:45.645Z,22.39
2023-01-03T14:59:33.328Z,22.39
2023-01-03T15:02:20.584Z,22.39
2023-01-03T15:05:24.936Z,22.41
2023-01-03T15:08:32.296Z,22.41
2023-01-03T15:11:32.417Z,22.42
2023-01-03T15:14:18.364Z,22.41
2023-01-03T15:17:06.089Z,22.42
2023-01-03T15:19:56.850Z,22.42
2023-01-03T15:22:44.354Z,22.43
2023-01-03T15:25:43.288Z,22.44
2023-01-03T15:28:50.011Z,22.46
2023-01-03T15:31:51.966Z,22.47
2023-01-03T15:34:41.200Z,22.50
2023-01-03T15:37:26.905Z,22.55
2023-01-03T15:40:13.888Z,22.57
2023-01-03T15:43:31.184Z,22.60
2023-01-03T15:46:20.297Z,22.59
2023-01-03T15:49:06.983Z,22.58
2023-01-03T15:51:52.956Z,22.61
2023-01-03T15:54:38.383Z,22.61
2023-01-03T15:57:29.486Z,22.63
2023-01-03T16:00:19.303Z,22.63
2023-01-03T16:03:05.152Z,22.65
2023-01-03T16:05:50.820Z,22.63
2023-01-03T16:08:40.225Z,22.61
2023-01-03T16:11:33.649Z,22.59
2023-01-03T16:14:23.443Z,22.57
2023-01-03T16:17:17.070Z,22.55
2023-01-03T16:20:06.768Z,22.56
2023-01-03T16:23:00.503Z,22.59
2023-01-03T16:25:46.527Z,22.60
2023-01-03T16:28:31.832Z,22.59
2023-01-03T16:31:20.173Z,22.60
2023-01-03T16:34:10.374Z,22.55
2023-01-03T16:36:55.686Z,22.59
2023-01-03T16:39:47.483Z,22.56
2023-01-03T16:42:34.080Z,22.59
2023-01-03T16:45:19.567Z,22.57
2023-01-03T16:48:05.759Z,22.58
2023-01-03T16:50:55.170Z,22.60
2023-01-03T16:53:40.948Z,22.58
2023-01-03T16:56:27.217Z,22.58
2023-01-03T16:59:20.772Z,22.55
2023-01-03T17:02:06.668Z,22.56
2023-01-03T17:04:52.211Z,22.59
2023-01-03T17:07:38.151Z,22.57
2023-01-03T17:10:29.297Z,22.54
2023-01-03T17:13:27.358Z,22.56
2023-01-03T17:16:22.802Z,22.55
2023-01-03T17:19:51.243Z,22.53
2023-01-03T17:22:24.042Z,22.51
2023-01-03T17:25:11.513Z,22.50
2023-01-03T17:27:59.841Z,22.50
2023-01-03T17:30:45.320Z,22.50
2023-01-03T17:33:33.964Z,22.48
2023-01-03T17:36:40.573Z,22.48
2023-01-03T17:39:27.282Z,22.50
2023-01-03T17:42:17.054Z,22.50
2023-01-03T17:45:20.832Z,22.52
2023-01-03T17:48:27.944Z,22.54
2023-01-03T17:51:13.196Z,22.55
2023-01-03T17:53:58.357Z,22.55
2023-01-03T17:56:44.175Z,22.55
2023-01-03T17:59:29.739Z,22.55
2023-01-03T18:02:21.548Z,22.55
2023-01-03T18:05:18.890Z,22.59
2023-01-03T18:08:18.053Z,22.56
2023-01-03T18:11:03.905Z,22.58
2023-01-03T18:13:49.912Z,22.57
2023-01-03T18:16:35.699Z,22.59
2023-01-03T18:19:20.892Z,22.59
2023-01-03T18:22:06.223Z,22.61
2023-01-03T18:24:52.807Z,22.61
2023-01-03T18:27:38.348Z,22.61
2023-01-03T18:30:23.895Z,22.60
2023-01-03T18:33:10.170Z,22.61
2023-01-03T18:35:55.871Z,22.62
2023-01-03T18:38:41.557Z,22.63
2023-01-03T18:41:29.716Z,22.65
2023-01-03T18:44:23.760Z,22.64
2023-01-03T18:47:13.641Z,22.62
2023-01-03T18:49:59.136Z,22.58
2023-01-03T18:52:44.950Z,22.58
2023-01-03T18:55:33.516Z,22.54
2023-01-03T18:58:35.938Z,22.52
2023-01-03T19:01:21.721Z,22.49
2023-01-03T19:04:06.941Z,22.45
2023-01-03T19:06:52.493Z,22.41
2023-01-03T19:09:38.229Z,22.38
2023-01-03T19:12:24.003Z,22.37
2023-01-03T19:15:16.820Z,22.32
2023-01-03T19:18:03.720Z,22.28
2023-01-03T19:20:51.367Z,22.26
2023-01-03T19:23:37.240Z,22.23
2023-01-03T19:26:30.853Z,22.20
2023-01-03T19:29:23.773Z,22.20
2023-01-03T19:32:23.071Z,22.16
2023-01-03T19:35:18.122Z,22.13
2023-01-03T19:38:04.422Z,22.13
2023-01-03T19:40:50.610Z,22.11
2023-01-03T19:43:36.853Z,22.08
2023-01-03T19:46:48.356Z,22.04
2023-01-03T19:49:34.141Z,22.03
2023-01-03T19:52:19.470Z,21.99
2023-01-03T19:55:05.254Z,21.98
2023-01-03T19:57:51.127Z,21.97
2023-01-03T20:00:37.231Z,21.94
2023-01-03T20:03:39.219Z,21.91
2023-01-03T20:06:25.582Z,21.90
2023-01-03T20:09:11.023Z,21.89
2023-01-03T20:11:56.889Z,21.86
2023-01-03T20:14:51.388Z,21.84
2023-01-03T20:17:37.237Z,21.84
2023-01-03T20:20:24.003Z,21.83
2023-01-03T20:23:15.319Z,21.82
2023-01-03T20:26:01.229Z,21.81
2023-01-03T20:28:46.747Z,21.79
2023-01-03T20:31:41.698Z,21.78
2023-01-03T20:34:26.802Z,21.78
2023-01-03T20:37:18.682Z,21.76
2023-01-03T20:40:04.293Z,21.76
2023-01-03T20:42:50.345Z,21.75
2023-01-03T20:45:37.125Z,21.73
2023-01-03T20:48:26.140Z,21.73
2023-01-03T20:51:13.986Z,21.74
2023-01-03T20:53:59.112Z,21.73
2023-01-03T20:56:44.771Z,21.73
2023-01-03T20:59:31.545Z,21.72
2023-01-03T21:02:17.164Z,21.71
2023-01-03T21:05:02.825Z,21.71
2023-01-03T21:08:07.043Z,21.69
2023-01-03T21:10:55.149Z,21.67
2023-01-03T21:13:42.198Z,21.67
2023-01-03T21:16:44.304Z,21.66
2023-01-03T21:19:29.582Z,21.65
2023-01-03T21:22:20.385Z,21.64
2023-01-03T21:25:07.239Z,21.63
2023-01-03T21:27:52.633Z,21.62
2023-01-03T21:30:38.766Z,21.62
2023-01-03T21:33:25.149Z,21.59
2023-01-03T21:36:23.192Z,21.57
2023-01-03T21:39:10.211Z,21.57
2023-01-03T21:42:14.238Z,21.54
2023-01-03T21:44:59.553Z,21.53
2023-01-03T21:47:44.929Z,21.52
2023-01-03T21:50:31.158Z,21.51
2023-01-03T21:53:19.590Z,21.51
2023-01-03T21:56:10.148Z,21.51
2023-01-03T21:58:55.907Z,21.51
2023-01-03T22:02:02.716Z,21.51
2023-01-03T22:04:48.130Z,21.50
2023-01-03T22:07:33.333Z,21.51
2023-01-03T22:10:19.264Z,21.51
2023-01-03T22:13:07.880Z,21.52
2023-01-03T22:15:53.215Z,21.52
2023-01-03T22:18:38.387Z,21.52
2023-01-03T22:21:23.666Z,21.53
2023-01-03T22:24:08.897Z,21.53
2023-01-03T22:26:54.135Z,21.52
2023-01-03T22:29:39.431Z,21.52
2023-01-03T22:32:26.024Z,21.52
2023-01-03T22:35:13.848Z,21.50
2023-01-03T22:37:59.288Z,21.49
2023-01-03T22:40:44.825Z,21.49
2023-01-03T22:43:30.339Z,21.49
2023-01-03T22:46:16.960Z,21.49
2023-01-03T22:49:02.337Z,21.48
2023-01-03T22:51:47.644Z,21.48
2023-01-03T22:54:35.224Z,21.47
2023-01-03T22:57:20.683Z,21.46
2023-01-03T23:00:06.971Z,21.46
2023-01-03T23:02:52.496Z,21.45
2023-01-03T23:05:38.072Z,21.45
2023-01-03T23:08:23.304Z,21.43
2023-01-03T23:11:34.135Z,21.43
2023-01-03T23:14:22.292Z,21.41
2023-01-03T23:17:26.444Z,21.41
2023-01-03T23:20:11.802Z,21.41
2023-01-03T23:23:02.827Z,21.40
2023-01-03T23:25:48.437Z,21.40
2023-01-03T23:28:33.890Z,21.39
2023-01-03T23:31:19.246Z,21.39
2023-01-03T23:34:04.467Z,21.39
2023-01-03T23:36:49.783Z,21.40
2023-01-03T23:39:35.337Z,21.39
2023-01-03T23:42:20.836Z,21.39
2023-01-03T23:45:07.248Z,21.40
2023-01-03T23:47:53.391Z,21.40
2023-01-03T23:50:38.619Z,21.38
2023-01-03T23:53:23.763Z,21.39
2023-01-03T23:56:12.805Z,21.39
2023-01-03T23:58:58.406Z,21.41
